Teddy Meyer — WDF9635 — position and weather

sailwx.info

Track history (hours):
 
Tides and Currents Weather Stations Pressure Air Temp Water Temp Dewpoint Dewpoint Depression Visibility Wind Speed Wind Dir Waves Ship Positions

Teddy Meyer

Owner: LeBeouf Bros. Towing, LLC, Houma, LA. More information available from US FCC via Universal Licensing System and Coast Guard Vessel Documentation Center.

Last reported at 2018-May-23 15:00 UTC. Time now 2018-May-23 15:13 UTC.
Position N 29°37' W 095°01'.

; draft 2 m.

MMSI: 367507220.

Date/timePositionNaut miles runAvg speedWind from/ knotsBaromVisibWave heightAir tempDewpointWater temp
2018-May-23 15:00N 29°37' W 095°01'0 0.0
2018-May-23 14:30N 29°37' W 095°01'0 0.0
2018-May-23 14:00N 29°37' W 095°01'0 0.0
2018-May-23 13:30N 29°37' W 095°01'0 0.0
2018-May-23 13:00N 29°37' W 095°01'0 0.0
2018-May-23 12:30N 29°37' W 095°01'0 0.0
2018-May-23 12:00N 29°37' W 095°01'0 0.0
2018-May-23 11:30N 29°37' W 095°01'0 0.0
2018-May-23 11:00N 29°37' W 095°01'0 0.0
2018-May-23 10:30N 29°37' W 095°01'0 0.0
2018-May-23 10:00N 29°37' W 095°01'0 0.0
2018-May-23 09:30N 29°37' W 095°01'0 0.0
2018-May-23 09:00N 29°37' W 095°01'0 0.0
2018-May-23 08:30N 29°37' W 095°01'0 0.0
2018-May-23 08:00N 29°37' W 095°01'0 0.0
2018-May-23 07:30N 29°37' W 095°01'0 0.0
2018-May-23 07:00N 29°37' W 095°01'0 0.0
2018-May-23 06:30N 29°37' W 095°01'0 0.0
2018-May-23 06:00N 29°37' W 095°01'0 0.0
2018-May-23 05:30N 29°37' W 095°01'0 0.0
2018-May-23 05:00N 29°37' W 095°01'0 0.0
2018-May-23 04:30N 29°37' W 095°01'0 0.0
2018-May-23 04:00N 29°37' W 095°01'0 0.0
2018-May-23 03:30N 29°37' W 095°01'0 0.2
2018-May-23 03:00N 29°37' W 095°02'0 0.2
2018-May-23 02:23N 29°37' W 095°01'0 0.0
2018-May-23 02:00N 29°37' W 095°01'0 0.0
2018-May-23 01:30N 29°37' W 095°01'0 0.0
2018-May-23 00:56N 29°37' W 095°01'0 0.0
2018-May-23 00:30N 29°37' W 095°01'0 0.0
2018-May-22 23:59N 29°37' W 095°01'0 0.2
2018-May-22 23:30N 29°37' W 095°01'0 0.2
2018-May-22 23:00N 29°37' W 095°01'2 3.5
2018-May-22 22:30N 29°37' W 094°59'3 6.8
2018-May-22 22:00N 29°35' W 094°56'4 8.2
2018-May-22 21:30N 29°32' W 094°53'4 8.5
2018-May-22 21:00N 29°28' W 094°51'5 9.1
2018-May-22 20:30N 29°24' W 094°49'2 4.8
2018-May-22 20:00N 29°23' W 094°46'2 0.4
2018-May-22 14:18N 29°24' W 094°44'0 0.0
2018-May-22 14:00N 29°24' W 094°44'18 0.8
2018-May-21 14:28N 29°34' W 094°26'2 4.3
2018-May-21 14:00N 29°35' W 094°25'3 3.9
2018-May-21 13:11N 29°37' W 094°22'1 5.2
2018-May-21 13:00N 29°37' W 094°21'3 5.2
2018-May-21 12:30N 29°38' W 094°18'3 5.2
2018-May-21 12:00N 29°39' W 094°15'3 5.2
2018-May-21 11:30N 29°41' W 094°13'2 4.7
2018-May-21 11:00N 29°41' W 094°10'2 4.9
2018-May-21 10:30N 29°43' W 094°08'3 5.2
2018-May-21 10:01N 29°44' W 094°05'3 5.0
2018-May-21 09:30N 29°46' W 094°03'2 4.9
2018-May-21 09:00N 29°47' W 094°01'2 4.9
2018-May-21 08:30N 29°49' W 093°59'3 6.9
2018-May-21 08:00N 29°52' W 093°56'4 8.3
2018-May-21 07:30N 29°55' W 093°53'4 7.5
2018-May-21 07:00N 29°58' W 093°51'3 6.4
2018-May-21 06:31N 29°59' W 093°48'4 7.3
2018-May-21 06:00N 30°02' W 093°44'4 5.7
2018-May-21 05:22N 30°04' W 093°41'2 5.8
2018-May-21 04:58N 30°04' W 093°38'3 5.4
2018-May-21 04:29N 30°04' W 093°35'2 5.1
2018-May-21 04:00N 30°04' W 093°32'3 5.1
2018-May-21 03:30N 30°04' W 093°29'3 5.2
2018-May-21 03:00N 30°04' W 093°26'3 5.2
2018-May-21 02:30N 30°04' W 093°23'2 4.3
2018-May-21 02:00N 30°04' W 093°21'2 3.8
2018-May-21 01:30N 30°05' W 093°20'2 4.8
2018-May-21 01:00N 30°08' W 093°20'1 1.3
2018-May-21 00:30N 30°08' W 093°19'0 0.0
2018-May-20 23:59N 30°08' W 093°19'0 0.0
2018-May-20 23:30N 30°08' W 093°19'0 0.0
2018-May-20 23:00N 30°08' W 093°19'0 0.0
2018-May-20 22:30N 30°08' W 093°19'0 0.0
2018-May-20 22:00N 30°08' W 093°19'0 0.0
2018-May-20 21:30N 30°08' W 093°19'0 0.0
2018-May-20 21:00N 30°08' W 093°19'0 0.0
2018-May-20 20:30N 30°08' W 093°19'0 0.0
2018-May-20 20:00N 30°08' W 093°19'0 0.0
2018-May-20 19:30N 30°08' W 093°19'0 0.0
2018-May-20 19:00N 30°08' W 093°19'0 0.0
2018-May-20 18:30N 30°08' W 093°19'0 0.0
2018-May-20 18:00N 30°08' W 093°19'0 0.0
2018-May-20 17:30N 30°08' W 093°19'0 0.0
2018-May-20 17:00N 30°08' W 093°19'0 0.0
2018-May-20 16:29N 30°08' W 093°19'0 0.0
2018-May-20 16:00N 30°08' W 093°19'0 0.0
2018-May-20 15:30N 30°08' W 093°19'0 0.0
2018-May-20 15:00N 30°08' W 093°19'0 0.0
2018-May-20 14:30N 30°08' W 093°19'0 0.0
2018-May-20 14:00N 30°08' W 093°19'0 0.1
2018-May-20 13:30N 30°08' W 093°19'3 6.3
2018-May-20 13:00N 30°05' W 093°20'3 5.3
2018-May-20 12:30N 30°04' W 093°22'2 3.2
2018-May-20 12:00N 30°04' W 093°24'3 6.3
2018-May-20 11:30N 30°04' W 093°28'3 6.2
2018-May-20 11:00N 30°04' W 093°31'3 6.0
2018-May-20 10:28N 30°04' W 093°35'3 6.1
2018-May-20 10:00N 30°04' W 093°38'3 6.0
2018-May-20 09:26N 30°03' W 093°42'3 6.2
2018-May-20 08:59N 30°01' W 093°45'3 6.9
2018-May-20 08:30N 29°59' W 093°48'3 6.7
2018-May-20 08:00N 29°58' W 093°51'2 3.2
2018-May-20 07:31N 29°59' W 093°53'0 0.0
2018-May-20 07:00N 29°59' W 093°53'0 0.0
2018-May-20 06:31N 29°59' W 093°53'0 0.0
2018-May-20 06:00N 29°59' W 093°53'0 0.0
2018-May-20 05:30N 29°59' W 093°53'0 0.0
2018-May-20 05:01N 29°59' W 093°53'0 0.0
2018-May-20 04:31N 29°59' W 093°53'0 0.0
2018-May-20 04:01N 29°59' W 093°53'0 0.0
2018-May-20 03:30N 29°59' W 093°53'0 0.0
2018-May-20 03:00N 29°59' W 093°53'0 0.0
2018-May-20 02:30N 29°59' W 093°53'0 0.0
2018-May-20 02:00N 29°59' W 093°53'0 0.0
2018-May-20 01:30N 29°59' W 093°53'0 0.0
2018-May-20 01:00N 29°59' W 093°53'0 0.0
2018-May-20 00:30N 29°59' W 093°53'0 0.0
2018-May-20 00:00N 29°59' W 093°53'0 0.0
2018-May-19 23:30N 29°59' W 093°53'0 0.0
2018-May-19 23:00N 29°59' W 093°53'0 0.0
2018-May-19 22:30N 29°59' W 093°53'0 0.0
2018-May-19 22:00N 29°59' W 093°53'0 0.0
2018-May-19 21:30N 29°59' W 093°53'0 0.0
2018-May-19 21:00N 29°59' W 093°53'0 0.0
2018-May-19 20:30N 29°59' W 093°53'0 0.0
2018-May-19 20:00N 29°59' W 093°53'0 0.0
2018-May-19 19:30N 29°59' W 093°53'0 0.0
2018-May-19 19:00N 29°59' W 093°53'0 0.0
2018-May-19 18:31N 29°59' W 093°53'0 0.0
2018-May-19 18:00N 29°59' W 093°53'0 0.0
2018-May-19 17:30N 29°59' W 093°53'0 0.0
2018-May-19 17:00N 29°59' W 093°53'0 0.0
2018-May-19 16:30N 29°59' W 093°53'0 0.0
2018-May-19 16:00N 29°59' W 093°53'0 0.0
2018-May-19 15:30N 29°59' W 093°53'0 0.0
2018-May-19 15:00N 29°59' W 093°53'0 0.0
2018-May-19 14:30N 29°59' W 093°53'0 0.0
2018-May-19 14:00N 29°59' W 093°53'0 0.0
2018-May-19 13:30N 29°59' W 093°53'0 0.0
2018-May-19 13:00N 29°59' W 093°53'0 0.3
2018-May-19 12:30N 29°59' W 093°53'2 4.6
2018-May-19 12:00N 29°59' W 093°50'3 5.7
2018-May-19 11:30N 29°60' W 093°47'1 1.6
2018-May-19 11:00N 29°60' W 093°46'0 0.1
2018-May-19 10:30N 29°60' W 093°46'0 0.0
2018-May-19 09:58N 29°60' W 093°46'0 0.0
2018-May-19 09:30N 29°60' W 093°46'0 0.0
2018-May-19 09:00N 29°60' W 093°46'0 0.0
2018-May-19 08:30N 29°60' W 093°46'0 0.0
2018-May-19 07:57N 29°60' W 093°46'0 0.0
2018-May-19 07:29N 29°60' W 093°46'0 0.0
2018-May-19 06:59N 29°60' W 093°46'0 0.0
2018-May-19 06:22N 29°60' W 093°46'0 0.0
2018-May-19 05:59N 29°60' W 093°46'0 0.0
2018-May-19 05:12N 29°60' W 093°46'0 0.0
2018-May-19 04:58N 29°60' W 093°46'0 0.0
2018-May-19 04:30N 29°60' W 093°46'0 0.0
2018-May-19 03:58N 29°60' W 093°46'0 0.0
2018-May-19 03:29N 29°60' W 093°46'0 0.0
2018-May-19 02:56N 29°60' W 093°46'0 0.0
2018-May-19 02:28N 29°60' W 093°46'0 0.0
2018-May-19 02:00N 29°60' W 093°46'0 0.0
2018-May-19 01:28N 29°60' W 093°46'0 0.0
2018-May-19 00:58N 29°60' W 093°46'0 0.0
2018-May-19 00:30N 29°60' W 093°46'0 0.0
2018-May-19 00:00N 29°60' W 093°46'0 0.0
2018-May-18 23:30N 29°60' W 093°46'0 0.0
2018-May-18 22:57N 29°60' W 093°46'0 0.0
2018-May-18 22:30N 29°60' W 093°46'0 0.0
2018-May-18 22:00N 29°60' W 093°46'0 0.0
2018-May-18 21:30N 29°60' W 093°46'0 0.0
2018-May-18 21:00N 29°60' W 093°46'0 0.0
2018-May-18 20:30N 29°60' W 093°46'0 0.0
2018-May-18 20:00N 29°60' W 093°46'0 0.0
2018-May-18 19:30N 29°60' W 093°46'0 0.0
2018-May-18 18:59N 29°60' W 093°46'0 0.0
2018-May-18 18:30N 29°60' W 093°46'0 0.0
2018-May-18 17:59N 29°60' W 093°46'0 0.0
2018-May-18 17:30N 29°60' W 093°46'0 0.0
2018-May-18 17:00N 29°60' W 093°46'0 0.0
2018-May-18 16:29N 29°60' W 093°46'0 0.0
2018-May-18 16:00N 29°60' W 093°46'0 0.0
2018-May-18 15:30N 29°60' W 093°46'0 0.0
2018-May-18 15:00N 29°60' W 093°46'0 0.0
2018-May-18 14:30N 29°60' W 093°46'0 0.0
2018-May-18 13:59N 29°60' W 093°46'0 0.0
2018-May-18 13:25N 29°60' W 093°46'0 0.0
2018-May-18 12:57N 29°60' W 093°46'0 0.0
2018-May-18 12:24N 29°60' W 093°46'0 0.0
2018-May-18 11:54N 29°60' W 093°46'0 0.0
2018-May-18 11:25N 29°60' W 093°46'0 0.0
2018-May-18 11:00N 29°60' W 093°46'0 0.0
2018-May-18 10:29N 29°60' W 093°46'0 0.0
2018-May-18 09:58N 29°60' W 093°46'0 0.0
2018-May-18 09:30N 29°60' W 093°46'0 0.0
2018-May-18 09:00N 29°60' W 093°46'0 0.0
2018-May-18 08:29N 29°60' W 093°46'0 0.0
2018-May-18 08:00N 29°60' W 093°46'0 0.0
2018-May-18 07:28N 29°60' W 093°46'0 0.0
2018-May-18 07:00N 29°60' W 093°46'0 0.0
2018-May-18 06:29N 29°60' W 093°46'0 0.0
2018-May-18 05:58N 29°60' W 093°46'0 0.0
2018-May-18 05:30N 29°60' W 093°46'0 0.0
2018-May-18 04:57N 29°60' W 093°46'0 0.0
2018-May-18 04:30N 29°60' W 093°46'0 0.0
2018-May-18 04:00N 29°60' W 093°46'0 0.0
2018-May-18 03:25N 29°60' W 093°46'0 0.0
2018-May-18 02:58N 29°60' W 093°46'0 0.0
2018-May-18 02:20N 29°60' W 093°46'0 0.0
2018-May-18 00:04N 29°60' W 093°46'0 0.0
2018-May-18 00:00N 29°60' W 093°46'0 0.0
2018-May-17 23:30N 29°60' W 093°46'0 0.0
2018-May-17 22:54N 29°60' W 093°46'0 0.0
2018-May-17 19:47N 29°60' W 093°46'0 0.0
2018-May-17 19:27N 29°60' W 093°46'0 0.0
2018-May-17 19:00N 29°60' W 093°46'0 0.0
2018-May-17 18:24N 29°60' W 093°46'0 0.0
2018-May-17 17:55N 29°60' W 093°46'0 0.0
2018-May-17 17:27N 29°60' W 093°46'0 0.0
2018-May-17 16:59N 29°60' W 093°46'0 0.0
2018-May-17 16:30N 29°60' W 093°46'0 0.0
2018-May-17 16:00N 29°60' W 093°46'0 0.0
2018-May-17 15:29N 29°60' W 093°46'0 0.0
2018-May-17 15:00N 29°60' W 093°46'0 0.0
2018-May-17 14:30N 29°60' W 093°46'0 0.0
2018-May-17 14:00N 29°60' W 093°46'0 0.0
2018-May-17 13:28N 29°60' W 093°46'0 0.0
2018-May-17 12:56N 29°60' W 093°46'0 0.0
2018-May-17 12:30N 29°60' W 093°46'0 0.0
2018-May-17 11:52N 29°60' W 093°46'0 0.0
2018-May-17 11:29N 29°60' W 093°46'0 0.0
2018-May-17 10:52N 29°60' W 093°46'0 0.0
2018-May-17 10:29N 29°60' W 093°46'0 0.0
2018-May-17 10:00N 29°60' W 093°46'0 0.0
2018-May-17 09:29N 29°60' W 093°46'0 0.0
2018-May-17 09:00N 29°60' W 093°46'0 0.0
2018-May-17 08:29N 29°60' W 093°46'0 0.0
2018-May-17 08:00N 29°60' W 093°46'0 0.0
2018-May-17 07:30N 29°60' W 093°46'0 0.0
2018-May-17 06:56N 29°60' W 093°46'0 0.0
2018-May-17 06:30N 29°60' W 093°46'0 0.0
2018-May-17 06:00N 29°60' W 093°46'0 0.0
2018-May-17 05:30N 29°60' W 093°46'0 0.0
2018-May-17 04:58N 29°60' W 093°46'0 0.0
2018-May-17 04:29N 29°60' W 093°46'0 0.0
2018-May-17 04:00N 29°60' W 093°46'0 0.0
2018-May-17 03:30N 29°60' W 093°46'0 0.0
2018-May-17 03:00N 29°60' W 093°46'0 0.0
2018-May-17 02:30N 29°60' W 093°46'0 0.0
2018-May-17 02:00N 29°60' W 093°46'0 0.0
2018-May-17 01:30N 29°60' W 093°46'0 0.0
2018-May-17 01:00N 29°60' W 093°46'0 0.0
2018-May-17 00:30N 29°60' W 093°46'0 0.0
2018-May-16 23:57N 29°60' W 093°46'0 0.0
2018-May-16 23:28N 29°60' W 093°46'0 0.0
2018-May-16 23:00N 29°60' W 093°46'0 0.0
2018-May-16 19:47N 29°60' W 093°46'0 0.0
2018-May-16 19:29N 29°60' W 093°46'0 0.0
2018-May-16 19:00N 29°60' W 093°46'0 0.0
2018-May-16 18:30N 29°60' W 093°46'0 0.0
2018-May-16 18:00N 29°60' W 093°46'0 0.0
2018-May-16 17:30N 29°60' W 093°46'0 0.0
2018-May-16 16:59N 29°60' W 093°46'0 0.0
2018-May-16 16:30N 29°60' W 093°46'0 0.0
2018-May-16 16:00N 29°60' W 093°46'0 0.0
2018-May-16 15:30N 29°60' W 093°46'0 0.0
2018-May-16 15:00N 29°60' W 093°46'0 0.0
2018-May-16 14:30N 29°60' W 093°46'0 0.0
2018-May-16 14:00N 29°60' W 093°46'0 0.0
2018-May-16 13:30N 29°60' W 093°46'0 0.0
2018-May-16 13:00N 29°60' W 093°46'0 0.0
2018-May-16 12:30N 29°60' W 093°46'0 0.0
2018-May-16 12:00N 29°60' W 093°46'0 0.0
2018-May-16 11:30N 29°60' W 093°46'0 0.0
2018-May-16 11:00N 29°60' W 093°46'0 0.0
2018-May-16 10:30N 29°60' W 093°46'0 0.0
2018-May-16 10:00N 29°60' W 093°46'0 0.0
2018-May-16 09:29N 29°60' W 093°46'0 0.0
2018-May-16 09:00N 29°60' W 093°46'0 0.0
2018-May-16 08:30N 29°60' W 093°46'0 0.0
2018-May-16 08:00N 29°60' W 093°46'0 0.0
2018-May-16 07:30N 29°60' W 093°46'0 0.0
2018-May-16 07:00N 29°60' W 093°46'0 0.0
2018-May-16 06:30N 29°60' W 093°46'0 0.0
2018-May-16 06:00N 29°60' W 093°46'0 0.0
2018-May-16 05:30N 29°60' W 093°46'0 0.0
2018-May-16 05:00N 29°60' W 093°46'0 0.0
2018-May-16 04:30N 29°60' W 093°46'0 0.0
2018-May-16 04:00N 29°60' W 093°46'0 0.0
2018-May-16 03:30N 29°60' W 093°46'0 0.0
2018-May-16 03:00N 29°60' W 093°46'0 0.0
2018-May-16 02:26N 29°60' W 093°46'0 0.0
2018-May-16 02:00N 29°60' W 093°46'0 0.0
2018-May-16 01:30N 29°60' W 093°46'0 0.0
2018-May-16 01:00N 29°60' W 093°46'0 0.0
2018-May-16 00:30N 29°60' W 093°46'0 0.0
2018-May-16 00:00N 29°60' W 093°46'0 0.0
2018-May-15 23:29N 29°60' W 093°46'0 0.0
2018-May-15 23:00N 29°60' W 093°46'0 0.0
2018-May-15 22:30N 29°60' W 093°46'0 0.0
2018-May-15 22:00N 29°60' W 093°46'0 0.0
2018-May-15 21:26N 29°60' W 093°46'0 0.0
2018-May-15 20:59N 29°60' W 093°46'0 0.0
2018-May-15 20:30N 29°60' W 093°46'0 0.0
2018-May-15 20:00N 29°60' W 093°46'0 0.0
2018-May-15 19:27N 29°60' W 093°46'0 0.0
2018-May-15 18:56N 29°60' W 093°46'0 0.0
2018-May-15 18:29N 29°60' W 093°46'0 0.0
2018-May-15 17:59N 29°60' W 093°46'0 0.0
2018-May-15 17:30N 29°60' W 093°46'0 0.0
2018-May-15 17:00N 29°60' W 093°46'0 0.0
2018-May-15 16:30N 29°60' W 093°46'0 0.0
2018-May-15 16:00N 29°60' W 093°46'0 0.0
2018-May-15 15:30N 29°60' W 093°46'0 0.0
2018-May-15 15:00N 29°60' W 093°46'0 0.0
2018-May-15 14:30N 29°60' W 093°46'0 0.0
2018-May-15 14:00N 29°60' W 093°46'0 0.0
2018-May-15 13:30N 29°60' W 093°46'0 0.0
2018-May-15 13:00N 29°60' W 093°46'0 0.0
2018-May-15 12:30N 29°60' W 093°46'0 0.0
2018-May-15 12:00N 29°60' W 093°46'0 0.0
2018-May-15 11:30N 29°60' W 093°46'0 0.0
2018-May-15 10:59N 29°60' W 093°46'0 0.0
2018-May-15 10:30N 29°60' W 093°46'0 0.0
2018-May-15 10:00N 29°60' W 093°46'0 0.0
2018-May-15 09:30N 29°60' W 093°46'0 0.0
2018-May-15 09:00N 29°60' W 093°46'0 0.0
2018-May-15 08:30N 29°60' W 093°46'0 0.0
2018-May-15 07:59N 29°60' W 093°46'0 0.0
2018-May-15 07:30N 29°60' W 093°46'0 0.0
2018-May-15 07:00N 29°60' W 093°46'0 0.0
2018-May-15 06:30N 29°60' W 093°46'0 0.0
2018-May-15 06:00N 29°60' W 093°46'0 0.0
2018-May-15 05:30N 29°60' W 093°46'0 0.0
2018-May-15 05:00N 29°60' W 093°46'0 0.0
2018-May-15 04:29N 29°60' W 093°46'0 0.0
2018-May-15 03:56N 29°60' W 093°46'0 0.0
2018-May-15 03:30N 29°60' W 093°46'0 0.0
2018-May-15 03:00N 29°60' W 093°46'0 0.0
2018-May-15 02:30N 29°60' W 093°46'0 0.0
2018-May-15 02:00N 29°60' W 093°46'0 0.0
2018-May-15 01:30N 29°60' W 093°46'0 0.0
2018-May-15 01:00N 29°60' W 093°46'0 0.0
2018-May-15 00:26N 29°60' W 093°46'0 0.0
2018-May-14 23:59N 29°60' W 093°46'0 0.0
2018-May-14 23:29N 29°60' W 093°46'0 0.0
2018-May-14 22:47N 29°60' W 093°46'0 0.0
2018-May-14 22:29N 29°60' W 093°46'0 0.0
2018-May-14 22:00N 29°60' W 093°46'0 0.0
2018-May-14 21:30N 29°60' W 093°46'0 0.0
2018-May-14 21:00N 29°60' W 093°46'0 0.0
2018-May-14 20:30N 29°60' W 093°46'0 0.0
2018-May-14 20:00N 29°60' W 093°46'0 0.0
2018-May-14 19:30N 29°60' W 093°46'0 0.0
2018-May-14 19:00N 29°60' W 093°46'0 0.0
2018-May-14 18:30N 29°60' W 093°46'0 0.0
2018-May-14 18:00N 29°60' W 093°46'0 0.0
2018-May-14 17:30N 29°60' W 093°46'0 0.0
2018-May-14 17:00N 29°60' W 093°46'0 0.0
2018-May-14 16:30N 29°60' W 093°46'0 0.0
2018-May-14 16:00N 29°60' W 093°46'0 0.0
2018-May-14 15:30N 29°60' W 093°46'0 0.0
2018-May-14 15:00N 29°60' W 093°46'0 0.0
2018-May-14 14:29N 29°60' W 093°46'0 0.0
2018-May-14 14:00N 29°60' W 093°46'0 0.0
2018-May-14 13:30N 29°60' W 093°46'0 0.0
2018-May-14 13:00N 29°60' W 093°46'0 0.0
2018-May-14 12:30N 29°60' W 093°46'0 0.0
2018-May-14 11:52N 29°60' W 093°46'0 0.0
2018-May-14 11:27N 29°60' W 093°46'0 0.0
2018-May-14 10:54N 29°60' W 093°46'0 0.0
2018-May-14 10:13N 29°60' W 093°46'0 0.0
2018-May-14 09:48N 29°60' W 093°46'0 0.0
2018-May-14 09:24N 29°60' W 093°46'0 0.0
2018-May-14 09:00N 29°60' W 093°46'0 0.0
2018-May-14 08:06N 29°60' W 093°46'0 0.0
2018-May-14 07:56N 29°60' W 093°46'0 0.0
2018-May-14 07:30N 29°60' W 093°46'0 0.0
2018-May-14 07:00N 29°60' W 093°46'0 0.0
2018-May-14 06:30N 29°60' W 093°46'0 0.0
2018-May-14 05:59N 29°60' W 093°46'0 0.0
2018-May-14 05:30N 29°60' W 093°46'0 0.0
2018-May-14 04:59N 29°60' W 093°46'0 0.0
2018-May-14 04:30N 29°60' W 093°46'0 0.0
2018-May-14 03:58N 29°60' W 093°46'0 0.0
2018-May-14 03:30N 29°60' W 093°46'0 0.0
2018-May-14 03:00N 29°60' W 093°46'0 0.0
2018-May-14 02:30N 29°60' W 093°46'0 0.0
2018-May-14 01:57N 29°60' W 093°46'0 0.0
2018-May-14 01:26N 29°60' W 093°46'0 0.0
2018-May-14 01:00N 29°60' W 093°46'0 0.0
2018-May-14 00:30N 29°60' W 093°46'0 0.0
2018-May-14 00:00N 29°60' W 093°46'0 0.0
2018-May-13 23:30N 29°60' W 093°46'0 0.0
2018-May-13 22:58N 29°60' W 093°46'0 0.0
2018-May-13 22:31N 29°60' W 093°46'0 0.0
2018-May-13 21:59N 29°60' W 093°46'0 0.0
2018-May-13 21:28N 29°60' W 093°46'0 0.0
2018-May-13 21:00N 29°60' W 093°46'0 0.0
2018-May-13 20:30N 29°60' W 093°46'0 0.0
2018-May-13 20:00N 29°60' W 093°46'0 0.0
2018-May-13 19:30N 29°60' W 093°46'0 0.0
2018-May-13 19:00N 29°60' W 093°46'0 0.0
2018-May-13 18:30N 29°60' W 093°46'0 0.0
2018-May-13 18:01N 29°60' W 093°46'0 0.0
2018-May-13 17:30N 29°60' W 093°46'0 0.0
2018-May-13 17:00N 29°60' W 093°46'0 0.0
2018-May-13 16:29N 29°60' W 093°46'0 0.0
2018-May-13 16:00N 29°60' W 093°46'0 0.0
2018-May-13 15:30N 29°60' W 093°46'  
Track history (hours):
 
Tides and Currents Weather Stations Pressure Air Temp Water Temp Dewpoint Dewpoint Depression Visibility Wind Speed Wind Dir Waves Ship Positions

Teddy Meyer

Owner: LeBeouf Bros. Towing, LLC, Houma, LA. More information available from US FCC via Universal Licensing System and Coast Guard Vessel Documentation Center.

Last reported at 2018-May-23 15:00 UTC. Time now 2018-May-23 15:13 UTC.
Position N 29°37' W 095°01'.

; draft 2 m.

MMSI: 367507220.

Date/timePositionNaut miles runAvg speedWind from/ knotsBaromVisibWave heightAir tempDewpointWater temp
2018-May-23 15:00N 29°37' W 095°01'0 0.0
2018-May-23 14:30N 29°37' W 095°01'0 0.0
2018-May-23 14:00N 29°37' W 095°01'0 0.0
2018-May-23 13:30N 29°37' W 095°01'0 0.0
2018-May-23 13:00N 29°37' W 095°01'0 0.0
2018-May-23 12:30N 29°37' W 095°01'0 0.0
2018-May-23 12:00N 29°37' W 095°01'0 0.0
2018-May-23 11:30N 29°37' W 095°01'0 0.0
2018-May-23 11:00N 29°37' W 095°01'0 0.0
2018-May-23 10:30N 29°37' W 095°01'0 0.0
2018-May-23 10:00N 29°37' W 095°01'0 0.0
2018-May-23 09:30N 29°37' W 095°01'0 0.0
2018-May-23 09:00N 29°37' W 095°01'0 0.0
2018-May-23 08:30N 29°37' W 095°01'0 0.0
2018-May-23 08:00N 29°37' W 095°01'0 0.0
2018-May-23 07:30N 29°37' W 095°01'0 0.0
2018-May-23 07:00N 29°37' W 095°01'0 0.0
2018-May-23 06:30N 29°37' W 095°01'0 0.0
2018-May-23 06:00N 29°37' W 095°01'0 0.0
2018-May-23 05:30N 29°37' W 095°01'0 0.0
2018-May-23 05:00N 29°37' W 095°01'0 0.0
2018-May-23 04:30N 29°37' W 095°01'0 0.0
2018-May-23 04:00N 29°37' W 095°01'0 0.0
2018-May-23 03:30N 29°37' W 095°01'0 0.2
2018-May-23 03:00N 29°37' W 095°02'0 0.2
2018-May-23 02:23N 29°37' W 095°01'0 0.0
2018-May-23 02:00N 29°37' W 095°01'0 0.0
2018-May-23 01:30N 29°37' W 095°01'0 0.0
2018-May-23 00:56N 29°37' W 095°01'0 0.0
2018-May-23 00:30N 29°37' W 095°01'0 0.0
2018-May-22 23:59N 29°37' W 095°01'0 0.2
2018-May-22 23:30N 29°37' W 095°01'0 0.2
2018-May-22 23:00N 29°37' W 095°01'2 3.5
2018-May-22 22:30N 29°37' W 094°59'3 6.8
2018-May-22 22:00N 29°35' W 094°56'4 8.2
2018-May-22 21:30N 29°32' W 094°53'4 8.5
2018-May-22 21:00N 29°28' W 094°51'5 9.1
2018-May-22 20:30N 29°24' W 094°49'2 4.8
2018-May-22 20:00N 29°23' W 094°46'2 0.4
2018-May-22 14:18N 29°24' W 094°44'0 0.0
2018-May-22 14:00N 29°24' W 094°44'18 0.8
2018-May-21 14:28N 29°34' W 094°26'2 4.3
2018-May-21 14:00N 29°35' W 094°25'3 3.9
2018-May-21 13:11N 29°37' W 094°22'1 5.2
2018-May-21 13:00N 29°37' W 094°21'3 5.2
2018-May-21 12:30N 29°38' W 094°18'3 5.2
2018-May-21 12:00N 29°39' W 094°15'3 5.2
2018-May-21 11:30N 29°41' W 094°13'2 4.7
2018-May-21 11:00N 29°41' W 094°10'2 4.9
2018-May-21 10:30N 29°43' W 094°08'3 5.2
2018-May-21 10:01N 29°44' W 094°05'3 5.0
2018-May-21 09:30N 29°46' W 094°03'2 4.9
2018-May-21 09:00N 29°47' W 094°01'2 4.9
2018-May-21 08:30N 29°49' W 093°59'3 6.9
2018-May-21 08:00N 29°52' W 093°56'4 8.3
2018-May-21 07:30N 29°55' W 093°53'4 7.5
2018-May-21 07:00N 29°58' W 093°51'3 6.4
2018-May-21 06:31N 29°59' W 093°48'4 7.3
2018-May-21 06:00N 30°02' W 093°44'4 5.7
2018-May-21 05:22N 30°04' W 093°41'2 5.8
2018-May-21 04:58N 30°04' W 093°38'3 5.4
2018-May-21 04:29N 30°04' W 093°35'2 5.1
2018-May-21 04:00N 30°04' W 093°32'3 5.1
2018-May-21 03:30N 30°04' W 093°29'3 5.2
2018-May-21 03:00N 30°04' W 093°26'3 5.2
2018-May-21 02:30N 30°04' W 093°23'2 4.3
2018-May-21 02:00N 30°04' W 093°21'2 3.8
2018-May-21 01:30N 30°05' W 093°20'2 4.8
2018-May-21 01:00N 30°08' W 093°20'1 1.3
2018-May-21 00:30N 30°08' W 093°19'0 0.0
2018-May-20 23:59N 30°08' W 093°19'0 0.0
2018-May-20 23:30N 30°08' W 093°19'0 0.0
2018-May-20 23:00N 30°08' W 093°19'0 0.0
2018-May-20 22:30N 30°08' W 093°19'0 0.0
2018-May-20 22:00N 30°08' W 093°19'0 0.0
2018-May-20 21:30N 30°08' W 093°19'0 0.0
2018-May-20 21:00N 30°08' W 093°19'0 0.0
2018-May-20 20:30N 30°08' W 093°19'0 0.0
2018-May-20 20:00N 30°08' W 093°19'0 0.0
2018-May-20 19:30N 30°08' W 093°19'0 0.0
2018-May-20 19:00N 30°08' W 093°19'0 0.0
2018-May-20 18:30N 30°08' W 093°19'0 0.0
2018-May-20 18:00N 30°08' W 093°19'0 0.0
2018-May-20 17:30N 30°08' W 093°19'0 0.0
2018-May-20 17:00N 30°08' W 093°19'0 0.0
2018-May-20 16:29N 30°08' W 093°19'0 0.0
2018-May-20 16:00N 30°08' W 093°19'0 0.0
2018-May-20 15:30N 30°08' W 093°19'0 0.0
2018-May-20 15:00N 30°08' W 093°19'0 0.0
2018-May-20 14:30N 30°08' W 093°19'0 0.0
2018-May-20 14:00N 30°08' W 093°19'0 0.1
2018-May-20 13:30N 30°08' W 093°19'3 6.3
2018-May-20 13:00N 30°05' W 093°20'3 5.3
2018-May-20 12:30N 30°04' W 093°22'2 3.2
2018-May-20 12:00N 30°04' W 093°24'3 6.3
2018-May-20 11:30N 30°04' W 093°28'3 6.2
2018-May-20 11:00N 30°04' W 093°31'3 6.0
2018-May-20 10:28N 30°04' W 093°35'3 6.1
2018-May-20 10:00N 30°04' W 093°38'3 6.0
2018-May-20 09:26N 30°03' W 093°42'3 6.2
2018-May-20 08:59N 30°01' W 093°45'3 6.9
2018-May-20 08:30N 29°59' W 093°48'3 6.7
2018-May-20 08:00N 29°58' W 093°51'2 3.2
2018-May-20 07:31N 29°59' W 093°53'0 0.0
2018-May-20 07:00N 29°59' W 093°53'0 0.0
2018-May-20 06:31N 29°59' W 093°53'0 0.0
2018-May-20 06:00N 29°59' W 093°53'0 0.0
2018-May-20 05:30N 29°59' W 093°53'0 0.0
2018-May-20 05:01N 29°59' W 093°53'0 0.0
2018-May-20 04:31N 29°59' W 093°53'0 0.0
2018-May-20 04:01N 29°59' W 093°53'0 0.0
2018-May-20 03:30N 29°59' W 093°53'0 0.0
2018-May-20 03:00N 29°59' W 093°53'0 0.0
2018-May-20 02:30N 29°59' W 093°53'0 0.0
2018-May-20 02:00N 29°59' W 093°53'0 0.0
2018-May-20 01:30N 29°59' W 093°53'0 0.0
2018-May-20 01:00N 29°59' W 093°53'0 0.0
2018-May-20 00:30N 29°59' W 093°53'0 0.0
2018-May-20 00:00N 29°59' W 093°53'0 0.0
2018-May-19 23:30N 29°59' W 093°53'0 0.0
2018-May-19 23:00N 29°59' W 093°53'0 0.0
2018-May-19 22:30N 29°59' W 093°53'0 0.0
2018-May-19 22:00N 29°59' W 093°53'0 0.0
2018-May-19 21:30N 29°59' W 093°53'0 0.0
2018-May-19 21:00N 29°59' W 093°53'0 0.0
2018-May-19 20:30N 29°59' W 093°53'0 0.0
2018-May-19 20:00N 29°59' W 093°53'0 0.0
2018-May-19 19:30N 29°59' W 093°53'0 0.0
2018-May-19 19:00N 29°59' W 093°53'0 0.0
2018-May-19 18:31N 29°59' W 093°53'0 0.0
2018-May-19 18:00N 29°59' W 093°53'0 0.0
2018-May-19 17:30N 29°59' W 093°53'0 0.0
2018-May-19 17:00N 29°59' W 093°53'0 0.0
2018-May-19 16:30N 29°59' W 093°53'0 0.0
2018-May-19 16:00N 29°59' W 093°53'0 0.0
2018-May-19 15:30N 29°59' W 093°53'0 0.0
2018-May-19 15:00N 29°59' W 093°53'0 0.0
2018-May-19 14:30N 29°59' W 093°53'0 0.0
2018-May-19 14:00N 29°59' W 093°53'0 0.0
2018-May-19 13:30N 29°59' W 093°53'0 0.0
2018-May-19 13:00N 29°59' W 093°53'0 0.3
2018-May-19 12:30N 29°59' W 093°53'2 4.6
2018-May-19 12:00N 29°59' W 093°50'3 5.7
2018-May-19 11:30N 29°60' W 093°47'1 1.6
2018-May-19 11:00N 29°60' W 093°46'0 0.1
2018-May-19 10:30N 29°60' W 093°46'0 0.0
2018-May-19 09:58N 29°60' W 093°46'0 0.0
2018-May-19 09:30N 29°60' W 093°46'0 0.0
2018-May-19 09:00N 29°60' W 093°46'0 0.0
2018-May-19 08:30N 29°60' W 093°46'0 0.0
2018-May-19 07:57N 29°60' W 093°46'0 0.0
2018-May-19 07:29N 29°60' W 093°46'0 0.0
2018-May-19 06:59N 29°60' W 093°46'0 0.0
2018-May-19 06:22N 29°60' W 093°46'0 0.0
2018-May-19 05:59N 29°60' W 093°46'0 0.0
2018-May-19 05:12N 29°60' W 093°46'0 0.0
2018-May-19 04:58N 29°60' W 093°46'0 0.0
2018-May-19 04:30N 29°60' W 093°46'0 0.0
2018-May-19 03:58N 29°60' W 093°46'0 0.0
2018-May-19 03:29N 29°60' W 093°46'0 0.0
2018-May-19 02:56N 29°60' W 093°46'0 0.0
2018-May-19 02:28N 29°60' W 093°46'0 0.0
2018-May-19 02:00N 29°60' W 093°46'0 0.0
2018-May-19 01:28N 29°60' W 093°46'0 0.0
2018-May-19 00:58N 29°60' W 093°46'0 0.0
2018-May-19 00:30N 29°60' W 093°46'0 0.0
2018-May-19 00:00N 29°60' W 093°46'0 0.0
2018-May-18 23:30N 29°60' W 093°46'0 0.0
2018-May-18 22:57N 29°60' W 093°46'0 0.0
2018-May-18 22:30N 29°60' W 093°46'0 0.0
2018-May-18 22:00N 29°60' W 093°46'0 0.0
2018-May-18 21:30N 29°60' W 093°46'0 0.0
2018-May-18 21:00N 29°60' W 093°46'0 0.0
2018-May-18 20:30N 29°60' W 093°46'0 0.0
2018-May-18 20:00N 29°60' W 093°46'0 0.0
2018-May-18 19:30N 29°60' W 093°46'0 0.0
2018-May-18 18:59N 29°60' W 093°46'0 0.0
2018-May-18 18:30N 29°60' W 093°46'0 0.0
2018-May-18 17:59N 29°60' W 093°46'0 0.0
2018-May-18 17:30N 29°60' W 093°46'0 0.0
2018-May-18 17:00N 29°60' W 093°46'0 0.0
2018-May-18 16:29N 29°60' W 093°46'0 0.0
2018-May-18 16:00N 29°60' W 093°46'0 0.0
2018-May-18 15:30N 29°60' W 093°46'0 0.0
2018-May-18 15:00N 29°60' W 093°46'0 0.0
2018-May-18 14:30N 29°60' W 093°46'0 0.0
2018-May-18 13:59N 29°60' W 093°46'0 0.0
2018-May-18 13:25N 29°60' W 093°46'0 0.0
2018-May-18 12:57N 29°60' W 093°46'0 0.0
2018-May-18 12:24N 29°60' W 093°46'0 0.0
2018-May-18 11:54N 29°60' W 093°46'0 0.0
2018-May-18 11:25N 29°60' W 093°46'0 0.0
2018-May-18 11:00N 29°60' W 093°46'0 0.0
2018-May-18 10:29N 29°60' W 093°46'0 0.0
2018-May-18 09:58N 29°60' W 093°46'0 0.0
2018-May-18 09:30N 29°60' W 093°46'0 0.0
2018-May-18 09:00N 29°60' W 093°46'0 0.0
2018-May-18 08:29N 29°60' W 093°46'0 0.0
2018-May-18 08:00N 29°60' W 093°46'0 0.0
2018-May-18 07:28N 29°60' W 093°46'0 0.0
2018-May-18 07:00N 29°60' W 093°46'0 0.0
2018-May-18 06:29N 29°60' W 093°46'0 0.0
2018-May-18 05:58N 29°60' W 093°46'0 0.0
2018-May-18 05:30N 29°60' W 093°46'0 0.0
2018-May-18 04:57N 29°60' W 093°46'0 0.0
2018-May-18 04:30N 29°60' W 093°46'0 0.0
2018-May-18 04:00N 29°60' W 093°46'0 0.0
2018-May-18 03:25N 29°60' W 093°46'0 0.0
2018-May-18 02:58N 29°60' W 093°46'0 0.0
2018-May-18 02:20N 29°60' W 093°46'0 0.0
2018-May-18 00:04N 29°60' W 093°46'0 0.0
2018-May-18 00:00N 29°60' W 093°46'0 0.0
2018-May-17 23:30N 29°60' W 093°46'0 0.0
2018-May-17 22:54N 29°60' W 093°46'0 0.0
2018-May-17 19:47N 29°60' W 093°46'0 0.0
2018-May-17 19:27N 29°60' W 093°46'0 0.0
2018-May-17 19:00N 29°60' W 093°46'0 0.0
2018-May-17 18:24N 29°60' W 093°46'0 0.0
2018-May-17 17:55N 29°60' W 093°46'0 0.0
2018-May-17 17:27N 29°60' W 093°46'0 0.0
2018-May-17 16:59N 29°60' W 093°46'0 0.0
2018-May-17 16:30N 29°60' W 093°46'0 0.0
2018-May-17 16:00N 29°60' W 093°46'0 0.0
2018-May-17 15:29N 29°60' W 093°46'0 0.0
2018-May-17 15:00N 29°60' W 093°46'0 0.0
2018-May-17 14:30N 29°60' W 093°46'0 0.0
2018-May-17 14:00N 29°60' W 093°46'0 0.0
2018-May-17 13:28N 29°60' W 093°46'0 0.0
2018-May-17 12:56N 29°60' W 093°46'0 0.0
2018-May-17 12:30N 29°60' W 093°46'0 0.0
2018-May-17 11:52N 29°60' W 093°46'0 0.0
2018-May-17 11:29N 29°60' W 093°46'0 0.0
2018-May-17 10:52N 29°60' W 093°46'0 0.0
2018-May-17 10:29N 29°60' W 093°46'0 0.0
2018-May-17 10:00N 29°60' W 093°46'0 0.0
2018-May-17 09:29N 29°60' W 093°46'0 0.0
2018-May-17 09:00N 29°60' W 093°46'0 0.0
2018-May-17 08:29N 29°60' W 093°46'0 0.0
2018-May-17 08:00N 29°60' W 093°46'0 0.0
2018-May-17 07:30N 29°60' W 093°46'0 0.0
2018-May-17 06:56N 29°60' W 093°46'0 0.0
2018-May-17 06:30N 29°60' W 093°46'0 0.0
2018-May-17 06:00N 29°60' W 093°46'0 0.0
2018-May-17 05:30N 29°60' W 093°46'0 0.0
2018-May-17 04:58N 29°60' W 093°46'0 0.0
2018-May-17 04:29N 29°60' W 093°46'0 0.0
2018-May-17 04:00N 29°60' W 093°46'0 0.0
2018-May-17 03:30N 29°60' W 093°46'0 0.0
2018-May-17 03:00N 29°60' W 093°46'0 0.0
2018-May-17 02:30N 29°60' W 093°46'0 0.0
2018-May-17 02:00N 29°60' W 093°46'0 0.0
2018-May-17 01:30N 29°60' W 093°46'0 0.0
2018-May-17 01:00N 29°60' W 093°46'0 0.0
2018-May-17 00:30N 29°60' W 093°46'0 0.0
2018-May-16 23:57N 29°60' W 093°46'0 0.0
2018-May-16 23:28N 29°60' W 093°46'0 0.0
2018-May-16 23:00N 29°60' W 093°46'0 0.0
2018-May-16 19:47N 29°60' W 093°46'0 0.0
2018-May-16 19:29N 29°60' W 093°46'0 0.0
2018-May-16 19:00N 29°60' W 093°46'0 0.0
2018-May-16 18:30N 29°60' W 093°46'0 0.0
2018-May-16 18:00N 29°60' W 093°46'0 0.0
2018-May-16 17:30N 29°60' W 093°46'0 0.0
2018-May-16 16:59N 29°60' W 093°46'0 0.0
2018-May-16 16:30N 29°60' W 093°46'0 0.0
2018-May-16 16:00N 29°60' W 093°46'0 0.0
2018-May-16 15:30N 29°60' W 093°46'0 0.0
2018-May-16 15:00N 29°60' W 093°46'0 0.0
2018-May-16 14:30N 29°60' W 093°46'0 0.0
2018-May-16 14:00N 29°60' W 093°46'0 0.0
2018-May-16 13:30N 29°60' W 093°46'0 0.0
2018-May-16 13:00N 29°60' W 093°46'0 0.0
2018-May-16 12:30N 29°60' W 093°46'0 0.0
2018-May-16 12:00N 29°60' W 093°46'0 0.0
2018-May-16 11:30N 29°60' W 093°46'0 0.0
2018-May-16 11:00N 29°60' W 093°46'0 0.0
2018-May-16 10:30N 29°60' W 093°46'0 0.0
2018-May-16 10:00N 29°60' W 093°46'0 0.0
2018-May-16 09:29N 29°60' W 093°46'0 0.0
2018-May-16 09:00N 29°60' W 093°46'0 0.0
2018-May-16 08:30N 29°60' W 093°46'0 0.0
2018-May-16 08:00N 29°60' W 093°46'0 0.0
2018-May-16 07:30N 29°60' W 093°46'0 0.0
2018-May-16 07:00N 29°60' W 093°46'0 0.0
2018-May-16 06:30N 29°60' W 093°46'0 0.0
2018-May-16 06:00N 29°60' W 093°46'0 0.0
2018-May-16 05:30N 29°60' W 093°46'0 0.0
2018-May-16 05:00N 29°60' W 093°46'0 0.0
2018-May-16 04:30N 29°60' W 093°46'0 0.0
2018-May-16 04:00N 29°60' W 093°46'0 0.0
2018-May-16 03:30N 29°60' W 093°46'0 0.0
2018-May-16 03:00N 29°60' W 093°46'0 0.0
2018-May-16 02:26N 29°60' W 093°46'0 0.0
2018-May-16 02:00N 29°60' W 093°46'0 0.0
2018-May-16 01:30N 29°60' W 093°46'0 0.0
2018-May-16 01:00N 29°60' W 093°46'0 0.0
2018-May-16 00:30N 29°60' W 093°46'0 0.0
2018-May-16 00:00N 29°60' W 093°46'0 0.0
2018-May-15 23:29N 29°60' W 093°46'0 0.0
2018-May-15 23:00N 29°60' W 093°46'0 0.0
2018-May-15 22:30N 29°60' W 093°46'0 0.0
2018-May-15 22:00N 29°60' W 093°46'0 0.0
2018-May-15 21:26N 29°60' W 093°46'0 0.0
2018-May-15 20:59N 29°60' W 093°46'0 0.0
2018-May-15 20:30N 29°60' W 093°46'0 0.0
2018-May-15 20:00N 29°60' W 093°46'0 0.0
2018-May-15 19:27N 29°60' W 093°46'0 0.0
2018-May-15 18:56N 29°60' W 093°46'0 0.0
2018-May-15 18:29N 29°60' W 093°46'0 0.0
2018-May-15 17:59N 29°60' W 093°46'0 0.0
2018-May-15 17:30N 29°60' W 093°46'0 0.0
2018-May-15 17:00N 29°60' W 093°46'0 0.0
2018-May-15 16:30N 29°60' W 093°46'0 0.0
2018-May-15 16:00N 29°60' W 093°46'0 0.0
2018-May-15 15:30N 29°60' W 093°46'0 0.0
2018-May-15 15:00N 29°60' W 093°46'0 0.0
2018-May-15 14:30N 29°60' W 093°46'0 0.0
2018-May-15 14:00N 29°60' W 093°46'0 0.0
2018-May-15 13:30N 29°60' W 093°46'0 0.0
2018-May-15 13:00N 29°60' W 093°46'0 0.0
2018-May-15 12:30N 29°60' W 093°46'0 0.0
2018-May-15 12:00N 29°60' W 093°46'0 0.0
2018-May-15 11:30N 29°60' W 093°46'0 0.0
2018-May-15 10:59N 29°60' W 093°46'0 0.0
2018-May-15 10:30N 29°60' W 093°46'0 0.0
2018-May-15 10:00N 29°60' W 093°46'0 0.0
2018-May-15 09:30N 29°60' W 093°46'0 0.0
2018-May-15 09:00N 29°60' W 093°46'0 0.0
2018-May-15 08:30N 29°60' W 093°46'0 0.0
2018-May-15 07:59N 29°60' W 093°46'0 0.0
2018-May-15 07:30N 29°60' W 093°46'0 0.0
2018-May-15 07:00N 29°60' W 093°46'0 0.0
2018-May-15 06:30N 29°60' W 093°46'0 0.0
2018-May-15 06:00N 29°60' W 093°46'0 0.0
2018-May-15 05:30N 29°60' W 093°46'0 0.0
2018-May-15 05:00N 29°60' W 093°46'0 0.0
2018-May-15 04:29N 29°60' W 093°46'0 0.0
2018-May-15 03:56N 29°60' W 093°46'0 0.0
2018-May-15 03:30N 29°60' W 093°46'0 0.0
2018-May-15 03:00N 29°60' W 093°46'0 0.0
2018-May-15 02:30N 29°60' W 093°46'0 0.0
2018-May-15 02:00N 29°60' W 093°46'0 0.0
2018-May-15 01:30N 29°60' W 093°46'0 0.0
2018-May-15 01:00N 29°60' W 093°46'0 0.0
2018-May-15 00:26N 29°60' W 093°46'0 0.0
2018-May-14 23:59N 29°60' W 093°46'0 0.0
2018-May-14 23:29N 29°60' W 093°46'0 0.0
2018-May-14 22:47N 29°60' W 093°46'0 0.0
2018-May-14 22:29N 29°60' W 093°46'0 0.0
2018-May-14 22:00N 29°60' W 093°46'0 0.0
2018-May-14 21:30N 29°60' W 093°46'0 0.0
2018-May-14 21:00N 29°60' W 093°46'0 0.0
2018-May-14 20:30N 29°60' W 093°46'0 0.0
2018-May-14 20:00N 29°60' W 093°46'0 0.0
2018-May-14 19:30N 29°60' W 093°46'0 0.0
2018-May-14 19:00N 29°60' W 093°46'0 0.0
2018-May-14 18:30N 29°60' W 093°46'0 0.0
2018-May-14 18:00N 29°60' W 093°46'0 0.0
2018-May-14 17:30N 29°60' W 093°46'0 0.0
2018-May-14 17:00N 29°60' W 093°46'0 0.0
2018-May-14 16:30N 29°60' W 093°46'0 0.0
2018-May-14 16:00N 29°60' W 093°46'0 0.0
2018-May-14 15:30N 29°60' W 093°46'0 0.0
2018-May-14 15:00N 29°60' W 093°46'0 0.0
2018-May-14 14:29N 29°60' W 093°46'0 0.0
2018-May-14 14:00N 29°60' W 093°46'0 0.0
2018-May-14 13:30N 29°60' W 093°46'0 0.0
2018-May-14 13:00N 29°60' W 093°46'0 0.0
2018-May-14 12:30N 29°60' W 093°46'0 0.0
2018-May-14 11:52N 29°60' W 093°46'0 0.0
2018-May-14 11:27N 29°60' W 093°46'0 0.0
2018-May-14 10:54N 29°60' W 093°46'0 0.0
2018-May-14 10:13N 29°60' W 093°46'0 0.0
2018-May-14 09:48N 29°60' W 093°46'0 0.0
2018-May-14 09:24N 29°60' W 093°46'0 0.0
2018-May-14 09:00N 29°60' W 093°46'0 0.0
2018-May-14 08:06N 29°60' W 093°46'0 0.0
2018-May-14 07:56N 29°60' W 093°46'0 0.0
2018-May-14 07:30N 29°60' W 093°46'0 0.0
2018-May-14 07:00N 29°60' W 093°46'0 0.0
2018-May-14 06:30N 29°60' W 093°46'0 0.0
2018-May-14 05:59N 29°60' W 093°46'0 0.0
2018-May-14 05:30N 29°60' W 093°46'0 0.0
2018-May-14 04:59N 29°60' W 093°46'0 0.0
2018-May-14 04:30N 29°60' W 093°46'0 0.0
2018-May-14 03:58N 29°60' W 093°46'0 0.0
2018-May-14 03:30N 29°60' W 093°46'0 0.0
2018-May-14 03:00N 29°60' W 093°46'0 0.0
2018-May-14 02:30N 29°60' W 093°46'0 0.0
2018-May-14 01:57N 29°60' W 093°46'0 0.0
2018-May-14 01:26N 29°60' W 093°46'0 0.0
2018-May-14 01:00N 29°60' W 093°46'0 0.0
2018-May-14 00:30N 29°60' W 093°46'0 0.0
2018-May-14 00:00N 29°60' W 093°46'0 0.0
2018-May-13 23:30N 29°60' W 093°46'0 0.0
2018-May-13 22:58N 29°60' W 093°46'0 0.0
2018-May-13 22:31N 29°60' W 093°46'0 0.0
2018-May-13 21:59N 29°60' W 093°46'0 0.0
2018-May-13 21:28N 29°60' W 093°46'0 0.0
2018-May-13 21:00N 29°60' W 093°46'0 0.0
2018-May-13 20:30N 29°60' W 093°46'0 0.0
2018-May-13 20:00N 29°60' W 093°46'0 0.0
2018-May-13 19:30N 29°60' W 093°46'0 0.0
2018-May-13 19:00N 29°60' W 093°46'0 0.0
2018-May-13 18:30N 29°60' W 093°46'0 0.0
2018-May-13 18:01N 29°60' W 093°46'0 0.0
2018-May-13 17:30N 29°60' W 093°46'0 0.0
2018-May-13 17:00N 29°60' W 093°46'0 0.0
2018-May-13 16:29N 29°60' W 093°46'0 0.0
2018-May-13 16:00N 29°60' W 093°46'0 0.0
2018-May-13 15:30N 29°60' W 093°46'  

Dump ship's entire track history